Kendall Park, New Jersey
Current Conditions -  °F | °C
As of 3:53 AM on Friday 31 Oct 2014 (Local Time) from KSMQ Reporting Station
Clear Clear  
Wind Chill: -1°   Ceiling: Unl
Heat Index: -1°   Visibility: 10mi
Dew Point: -2°   Wind: 3mph
Humidity: 89%   Direction: 310°NW
Pressure: 30"   Gusts: NA
Location:  40.44°N, 74.54°W
Report Text: KSMQ 310753Z AUTO 31003KT 10SM CLR M01/M02 A3000 RMK AO2 SLP161 I1000 T10061022
Loading
Personal Weather Stations






























Interactive Weather Map
Tropical Storm Tracking
New forecast layout! Learn more

10-Day Weather Forecast

Advertisements
Track Severe Weather on mobile